Terminal Aerodrome Forecast
Issued by NWS

Home | Current Version | Previous Version | Graphics & Text | Print | Product List | Glossary On
Versions: 1 2 3 4 5 6 7 8 9 10 11 12 13 14 15 16 17 18 19 20 21 22 23 24 25 26 27 28 29 30 31 32 33 34 35 36 37 38 39 40 41 42
000
FTUS43 KLOT 231600 AAC
TAFMDW
TAF AMD
KMDW 231652Z 2317/2412 11006KT P6SM VCSH SCT018 BKN030
     FM231900 07008KT 5SM SHRA SCT018 BKN025
      TEMPO 2319/2320 26015G25KT 2SM TSRA OVC015CB
     FM232030 09009KT 6SM BR VCSH SCT015 OVC025
     FM240100 10007KT 6SM BR BKN025
     FM240800 10005KT 5SM BR BKN250=

USA.gov is the U.S. government's official web portal to all federal, state and local government web resources and services.